createdAt,value
2017-12-23T00:00:48.799Z,112.27
2017-12-23T00:03:17.101Z,114.77
2017-12-23T00:05:46.845Z,114.17
2017-12-23T00:08:16.485Z,128.03
2017-12-23T00:10:45.057Z,109.23
2017-12-23T00:13:13.335Z,119.73
2017-12-23T00:15:41.997Z,102.13
2017-12-23T00:18:11.560Z,112.87
2017-12-23T00:20:39.727Z,117.20
2017-12-23T00:23:08.768Z,115.07
2017-12-23T00:25:38.150Z,121.03
2017-12-23T00:28:06.408Z,113.20
2017-12-23T00:30:34.782Z,122.33
2017-12-23T00:33:03.785Z,105.03
2017-12-23T00:35:33.380Z,120.20
2017-12-23T00:38:02.321Z,121.93
2017-12-23T00:40:31.922Z,120.33
2017-12-23T00:43:01.414Z,128.10
2017-12-23T00:45:30.921Z,143.43
2017-12-23T00:47:59.048Z,119.67
2017-12-23T00:50:27.327Z,125.13
2017-12-23T00:52:57.149Z,102.27
2017-12-23T00:55:26.918Z,104.40
2017-12-23T00:57:56.533Z,100.57
2017-12-23T01:00:26.521Z,112.67
2017-12-23T01:02:56.266Z,116.40
2017-12-23T01:05:25.983Z,98.80
2017-12-23T01:07:55.444Z,121.93
2017-12-23T01:10:24.916Z,109.07
2017-12-23T01:12:54.591Z,106.57
2017-12-23T01:15:24.183Z,103.97
2017-12-23T01:17:53.854Z,87.80
2017-12-23T01:20:22.120Z,94.17
2017-12-23T01:22:50.359Z,93.43
2017-12-23T01:25:19.990Z,88.70
2017-12-23T01:27:49.468Z,78.03
2017-12-23T01:30:18.713Z,83.83
2017-12-23T01:32:47.005Z,83.73
2017-12-23T01:35:15.254Z,106.50
2017-12-23T01:37:43.497Z,87.90
2017-12-23T01:40:11.854Z,94.33
2017-12-23T01:42:41.221Z,98.27
2017-12-23T01:45:09.457Z,91.37
2017-12-23T01:47:37.761Z,92.50
2017-12-23T01:50:05.997Z,67.10
2017-12-23T01:52:34.237Z,80.90
2017-12-23T01:55:02.705Z,75.03
2017-12-23T01:57:31.732Z,80.03
2017-12-23T02:00:00.012Z,79.93
2017-12-23T02:02:29.661Z,72.33
2017-12-23T02:04:58.182Z,75.70
2017-12-23T02:07:26.457Z,94.97
2017-12-23T02:09:57.134Z,92.50
2017-12-23T02:12:26.541Z,91.83
2017-12-23T02:14:56.121Z,74.30
2017-12-23T02:17:24.665Z,86.30
2017-12-23T02:19:54.252Z,79.77
2017-12-23T02:22:23.132Z,92.23
2017-12-23T02:24:52.832Z,73.90
2017-12-23T02:27:21.362Z,95.73
2017-12-23T02:29:49.988Z,67.33
2017-12-23T02:32:19.620Z,80.13
2017-12-23T02:34:48.519Z,73.30
2017-12-23T02:37:18.104Z,76.13
2017-12-23T02:39:47.600Z,68.80
2017-12-23T02:42:17.073Z,66.43
2017-12-23T02:44:46.558Z,62.47
2017-12-23T02:47:16.246Z,48.70
2017-12-23T02:49:44.489Z,50.93
2017-12-23T02:52:14.246Z,47.27
2017-12-23T02:54:42.928Z,50.03
2017-12-23T02:57:11.175Z,54.60
2017-12-23T02:59:39.426Z,57.53
2017-12-23T03:02:07.744Z,66.07
2017-12-23T03:04:37.129Z,62.13
2017-12-23T03:07:06.712Z,60.97
2017-12-23T03:09:36.204Z,55.93
2017-12-23T03:12:05.898Z,73.60
2017-12-23T03:14:35.360Z,63.00
2017-12-23T03:17:04.264Z,75.20
2017-12-23T03:19:33.855Z,73.63
2017-12-23T03:22:03.478Z,75.47
2017-12-23T03:24:33.114Z,77.23
2017-12-23T03:27:03.155Z,66.60
2017-12-23T03:29:31.802Z,62.30
2017-12-23T03:32:00.091Z,72.23
2017-12-23T03:34:28.354Z,70.87
2017-12-23T03:36:57.023Z,72.80
2017-12-23T03:39:26.493Z,73.03
2017-12-23T03:41:56.092Z,66.07
2017-12-23T03:44:24.601Z,70.77
2017-12-23T03:46:52.919Z,84.57
2017-12-23T03:49:21.154Z,70.97
2017-12-23T03:51:50.156Z,81.97
2017-12-23T03:54:19.561Z,80.73
2017-12-23T03:56:47.798Z,82.47
2017-12-23T03:59:16.435Z,93.50
2017-12-23T04:01:45.496Z,88.90
2017-12-23T04:04:14.502Z,100.10
2017-12-23T04:06:42.751Z,87.57
2017-12-23T04:09:11.845Z,91.70
2017-12-23T04:11:40.095Z,67.93
2017-12-23T04:14:09.715Z,70.60
2017-12-23T04:16:39.210Z,60.07
2017-12-23T04:19:08.889Z,57.83
2017-12-23T04:21:37.068Z,53.83
2017-12-23T04:24:06.874Z,61.17
2017-12-23T04:26:35.104Z,59.80
2017-12-23T04:29:04.696Z,56.87
2017-12-23T04:31:33.606Z,58.43
2017-12-23T04:34:03.353Z,64.00
2017-12-23T04:36:31.600Z,65.53
2017-12-23T04:38:59.892Z,71.93
2017-12-23T04:41:29.497Z,73.80
2017-12-23T04:43:58.966Z,73.77
2017-12-23T04:46:28.484Z,70.17
2017-12-23T04:48:57.369Z,80.50
2017-12-23T04:51:26.969Z,74.87
2017-12-23T04:53:56.522Z,73.90
2017-12-23T04:56:26.178Z,74.03
2017-12-23T04:58:54.416Z,81.40
2017-12-23T05:01:22.684Z,74.13
2017-12-23T05:03:52.061Z,81.03
2017-12-23T05:06:20.318Z,83.20
2017-12-23T05:08:49.349Z,85.13
2017-12-23T05:11:18.720Z,82.90
2017-12-23T05:13:46.982Z,90.70
2017-12-23T05:16:15.301Z,103.63
2017-12-23T05:18:43.559Z,99.53
2017-12-23T05:21:13.156Z,100.57
2017-12-23T05:23:42.083Z,88.40
2017-12-23T05:26:11.094Z,114.93
2017-12-23T05:28:39.347Z,103.53
2017-12-23T05:31:09.014Z,99.10
2017-12-23T05:33:37.518Z,102.37
2017-12-23T05:36:07.112Z,98.63
2017-12-23T05:38:36.666Z,95.43
2017-12-23T05:41:04.718Z,101.23
2017-12-23T05:43:34.089Z,88.23
2017-12-23T05:46:02.372Z,109.67
2017-12-23T05:48:32.134Z,111.30
2017-12-23T05:51:01.158Z,100.73
2017-12-23T05:53:30.831Z,99.30
2017-12-23T05:55:59.158Z,107.47
2017-12-23T05:58:28.773Z,109.53
2017-12-23T06:00:57.720Z,123.07
2017-12-23T06:03:27.368Z,123.00
2017-12-23T06:05:57.774Z,113.87
2017-12-23T06:08:26.318Z,102.17
2017-12-23T06:10:55.928Z,102.63
2017-12-23T06:13:25.429Z,103.20
2017-12-23T06:15:53.549Z,99.27
2017-12-23T06:18:21.780Z,101.63
2017-12-23T06:20:51.608Z,105.30
2017-12-23T06:23:19.854Z,130.73
2017-12-23T06:25:48.529Z,128.80
2017-12-23T06:28:16.836Z,105.10
2017-12-23T06:30:45.095Z,99.50
2017-12-23T06:33:13.347Z,103.33
2017-12-23T06:35:43.142Z,95.47
2017-12-23T06:38:12.726Z,97.20
2017-12-23T06:40:41.255Z,85.57
2017-12-23T06:43:09.539Z,88.50
2017-12-23T06:45:38.541Z,86.07
2017-12-23T06:48:06.785Z,104.33
2017-12-23T06:50:35.057Z,90.53
2017-12-23T06:53:04.437Z,88.47
2017-12-23T06:55:33.086Z,102.40
2017-12-23T06:58:01.377Z,97.50
2017-12-23T07:00:29.630Z,100.57
2017-12-23T07:02:57.879Z,109.40
2017-12-23T07:05:26.160Z,128.90
2017-12-23T07:07:55.759Z,115.90
2017-12-23T07:10:23.890Z,154.83
2017-12-23T07:12:52.933Z,134.27
2017-12-23T07:15:21.186Z,146.23
2017-12-23T07:17:50.794Z,147.40
2017-12-23T07:20:18.973Z,148.93
2017-12-23T07:22:47.228Z,156.23
2017-12-23T07:25:16.835Z,158.40
2017-12-23T07:27:46.391Z,164.43
2017-12-23T07:30:14.903Z,168.10
2017-12-23T07:32:43.149Z,172.20
2017-12-23T07:35:11.463Z,157.50
2017-12-23T07:37:41.204Z,165.30
2017-12-23T07:40:09.457Z,178.10
2017-12-23T07:42:39.251Z,167.47
2017-12-23T07:45:07.507Z,148.73
2017-12-23T07:47:36.170Z,155.97
2017-12-23T07:50:04.449Z,158.40
2017-12-23T07:52:33.844Z,141.77
2017-12-23T07:55:02.861Z,147.83
2017-12-23T07:57:32.577Z,150.90
2017-12-23T08:00:01.219Z,154.03
2017-12-23T08:02:30.816Z,133.03
2017-12-23T08:04:59.045Z,140.83
2017-12-23T08:07:33.345Z,121.13
2017-12-23T08:10:01.651Z,131.30
2017-12-23T08:12:31.256Z,109.97
2017-12-23T08:14:59.784Z,104.60
2017-12-23T08:17:29.604Z,106.77
2017-12-23T08:19:59.200Z,101.97
2017-12-23T08:22:27.346Z,107.37
2017-12-23T08:24:57.122Z,77.70
2017-12-23T08:27:25.371Z,91.57
2017-12-23T08:29:53.618Z,77.47
2017-12-23T08:32:21.884Z,79.57
2017-12-23T08:34:51.477Z,80.97
2017-12-23T08:37:20.006Z,79.03
2017-12-23T08:39:48.272Z,79.57
2017-12-23T08:42:16.917Z,79.97
2017-12-23T08:44:46.686Z,75.70
2017-12-23T08:47:15.366Z,63.37
2017-12-23T08:49:44.369Z,74.10
2017-12-23T08:52:13.373Z,64.83
2017-12-23T08:54:41.645Z,56.63
2017-12-23T08:57:11.237Z,58.17
2017-12-23T08:59:40.748Z,60.83
2017-12-23T09:02:08.889Z,57.60
2017-12-23T09:04:37.897Z,69.03
2017-12-23T09:07:06.945Z,57.43
2017-12-23T09:09:35.198Z,63.80
2017-12-23T09:12:03.465Z,56.67
2017-12-23T09:14:32.318Z,59.20
2017-12-23T09:17:01.708Z,70.47
2017-12-23T09:19:30.357Z,65.90
2017-12-23T09:21:58.653Z,68.77
2017-12-23T09:24:28.442Z,68.73
2017-12-23T09:26:56.696Z,58.37
2017-12-23T09:29:24.979Z,65.80
2017-12-23T09:31:54.352Z,58.03
2017-12-23T09:34:23.940Z,52.03
2017-12-23T09:36:52.515Z,48.37
2017-12-23T09:39:22.096Z,50.73
2017-12-23T09:41:51.362Z,46.23
2017-12-23T09:44:21.165Z,59.73
2017-12-23T09:46:49.416Z,45.53
2017-12-23T09:49:17.673Z,45.90
2017-12-23T09:51:47.107Z,44.93
2017-12-23T09:54:15.342Z,47.50
2017-12-23T09:56:43.580Z,35.33
2017-12-23T09:59:13.224Z,37.33
2017-12-23T10:01:41.736Z,33.03
2017-12-23T10:04:11.334Z,31.93
2017-12-23T10:06:39.485Z,22.33
2017-12-23T10:09:08.503Z,20.20
2017-12-23T10:11:38.096Z,19.93
2017-12-23T10:14:06.272Z,17.50
2017-12-23T10:16:35.272Z,15.10
2017-12-23T10:19:04.653Z,12.67
2017-12-23T10:21:34.443Z,10.00
2017-12-23T10:24:04.024Z,15.17
2017-12-23T10:26:32.958Z,15.47
2017-12-23T10:29:01.249Z,10.77
2017-12-23T10:31:29.502Z,11.87
2017-12-23T10:33:58.881Z,9.47
2017-12-23T10:36:27.169Z,9.67
2017-12-23T10:38:55.399Z,12.40
2017-12-23T10:41:24.028Z,9.83
2017-12-23T10:43:52.297Z,9.50
2017-12-23T10:46:21.788Z,11.80
2017-12-23T10:48:50.397Z,9.27
2017-12-23T10:51:19.253Z,10.87
2017-12-23T10:53:47.941Z,12.30
2017-12-23T10:56:17.321Z,9.80
2017-12-23T10:58:46.361Z,10.60
2017-12-23T11:01:16.114Z,11.77
2017-12-23T11:03:44.349Z,11.17
2017-12-23T11:06:12.617Z,12.00
2017-12-23T11:08:42.316Z,17.07
2017-12-23T11:11:11.201Z,16.83
2017-12-23T11:13:39.476Z,16.03
2017-12-23T11:16:07.744Z,16.83
2017-12-23T11:18:37.140Z,18.87
2017-12-23T11:21:05.487Z,16.33
2017-12-23T11:23:34.503Z,17.30
2017-12-23T11:26:03.932Z,18.43
2017-12-23T11:28:33.679Z,21.13
2017-12-23T11:31:02.946Z,20.13
2017-12-23T11:33:31.609Z,18.97
2017-12-23T11:36:01.232Z,24.23
2017-12-23T11:38:29.763Z,22.77
2017-12-23T11:40:58.007Z,26.07
2017-12-23T11:43:26.276Z,23.60
2017-12-23T11:45:54.935Z,21.60
2017-12-23T11:48:24.523Z,21.70
2017-12-23T11:50:54.034Z,22.50
2017-12-23T11:53:22.554Z,19.60
2017-12-23T11:55:51.219Z,20.60
2017-12-23T11:58:19.579Z,20.40
2017-12-23T12:00:47.866Z,14.73
2017-12-23T12:03:17.568Z,15.10
2017-12-23T12:05:45.761Z,14.97
2017-12-23T12:08:14.012Z,13.17
2017-12-23T12:10:42.276Z,12.40
2017-12-23T12:13:12.053Z,14.20
2017-12-23T12:15:41.635Z,11.77
2017-12-23T12:18:09.769Z,13.17
2017-12-23T12:20:38.065Z,10.50
2017-12-23T12:23:07.142Z,14.50
2017-12-23T12:25:36.176Z,12.23
2017-12-23T12:28:05.486Z,13.13
2017-12-23T12:30:34.938Z,11.30
2017-12-23T12:33:03.272Z,14.03
2017-12-23T12:35:32.325Z,13.03
2017-12-23T12:38:01.353Z,11.33
2017-12-23T12:40:29.605Z,12.70
2017-12-23T12:42:59.017Z,12.20
2017-12-23T12:45:28.047Z,13.93
2017-12-23T12:47:57.978Z,14.27
2017-12-23T12:50:26.264Z,13.73
2017-12-23T12:52:55.872Z,17.50
2017-12-23T12:55:25.368Z,16.97
2017-12-23T12:57:53.564Z,17.53
2017-12-23T13:00:22.564Z,18.60
2017-12-23T13:02:51.949Z,17.97
2017-12-23T13:05:21.579Z,18.70
2017-12-23T13:07:51.040Z,21.57
2017-12-23T13:10:19.935Z,23.27
2017-12-23T13:12:48.602Z,20.70
2017-12-23T13:15:17.237Z,21.00
2017-12-23T13:17:46.255Z,18.07
2017-12-23T13:20:15.292Z,19.30
2017-12-23T13:22:44.484Z,17.17
2017-12-23T13:25:13.505Z,18.73
2017-12-23T13:27:43.285Z,19.80
2017-12-23T13:30:11.942Z,20.47
2017-12-23T13:32:41.832Z,21.33
2017-12-23T13:35:10.134Z,18.10
2017-12-23T13:37:38.409Z,15.97
2017-12-23T13:40:07.414Z,18.03
2017-12-23T13:42:36.565Z,15.90
2017-12-23T13:45:06.220Z,19.23
2017-12-23T13:47:35.690Z,18.10
2017-12-23T13:50:03.950Z,20.13
2017-12-23T13:52:32.211Z,18.20
2017-12-23T13:55:00.468Z,22.30
2017-12-23T13:57:28.767Z,19.10
2017-12-23T13:59:57.026Z,20.17
2017-12-23T14:02:26.782Z,20.37
2017-12-23T14:04:56.240Z,24.90
2017-12-23T14:07:24.900Z,20.33
2017-12-23T14:09:53.142Z,25.80
2017-12-23T14:12:21.510Z,19.70
2017-12-23T14:14:49.737Z,20.57
2017-12-23T14:17:17.999Z,25.07
2017-12-23T14:19:47.032Z,23.47
2017-12-23T14:22:16.405Z,20.97
2017-12-23T14:24:45.423Z,23.50
2017-12-23T14:27:14.893Z,22.60
2017-12-23T14:29:43.528Z,21.27
2017-12-23T14:32:13.130Z,21.20
2017-12-23T14:34:42.276Z,25.03
2017-12-23T14:37:12.076Z,24.27
2017-12-23T14:39:41.676Z,20.77
2017-12-23T14:42:11.337Z,21.50
2017-12-23T14:44:40.942Z,23.63
2017-12-23T14:47:10.408Z,23.43
2017-12-23T14:49:38.554Z,22.83
2017-12-23T14:52:07.594Z,20.17
2017-12-23T14:54:37.395Z,21.03
2017-12-23T14:57:07.029Z,19.70
2017-12-23T14:59:36.499Z,22.20
2017-12-23T15:02:05.088Z,23.80
2017-12-23T15:04:34.181Z,27.50
2017-12-23T15:07:02.535Z,18.60
2017-12-23T15:09:31.532Z,19.80
2017-12-23T15:12:01.230Z,19.13
2017-12-23T15:14:29.845Z,17.97
2017-12-23T15:16:58.183Z,17.13
2017-12-23T15:19:28.033Z,26.37
2017-12-23T15:21:57.784Z,20.70
2017-12-23T15:24:27.189Z,15.03
2017-12-23T15:26:56.261Z,17.73
2017-12-23T15:29:24.606Z,17.73
2017-12-23T15:31:52.963Z,16.30
2017-12-23T15:34:21.228Z,18.30
2017-12-23T15:36:49.496Z,17.63
2017-12-23T15:39:19.256Z,20.43
2017-12-23T15:41:47.616Z,16.10
2017-12-23T15:44:15.892Z,16.83
2017-12-23T15:46:44.142Z,17.77
2017-12-23T15:49:13.185Z,17.00
2017-12-23T15:51:41.517Z,18.43
2017-12-23T15:54:11.496Z,17.40
2017-12-23T15:56:39.797Z,17.77
2017-12-23T15:59:08.046Z,18.93
2017-12-23T16:01:36.331Z,16.70
2017-12-23T16:04:06.155Z,18.03
2017-12-23T16:06:34.322Z,18.23
2017-12-23T16:09:02.647Z,18.00
2017-12-23T16:11:31.485Z,19.97
2017-12-23T16:14:00.705Z,17.07
2017-12-23T16:16:29.367Z,16.90
2017-12-23T16:18:57.639Z,15.30
2017-12-23T16:21:27.390Z,14.90
2017-12-23T16:23:55.684Z,15.37
2017-12-23T16:26:24.719Z,13.43
2017-12-23T16:28:54.400Z,16.70
2017-12-23T16:31:23.216Z,15.70
2017-12-23T16:33:53.300Z,15.97
2017-12-23T16:36:21.500Z,13.80
2017-12-23T16:38:50.268Z,15.80
2017-12-23T16:41:20.083Z,17.30
2017-12-23T16:43:49.444Z,15.33
2017-12-23T16:46:18.188Z,14.90
2017-12-23T16:48:46.779Z,15.00
2017-12-23T16:51:16.210Z,14.50
2017-12-23T16:53:44.449Z,14.73
2017-12-23T16:56:12.763Z,16.20
2017-12-23T16:58:41.003Z,16.90
2017-12-23T17:01:10.662Z,15.07
2017-12-23T17:03:39.269Z,15.43
2017-12-23T17:06:07.525Z,15.30
2017-12-23T17:08:35.824Z,13.87
2017-12-23T17:11:04.857Z,17.20
2017-12-23T17:13:33.151Z,17.07
2017-12-23T17:16:03.098Z,20.63
2017-12-23T17:18:32.718Z,19.83
2017-12-23T17:21:01.656Z,21.33
2017-12-23T17:23:29.918Z,16.60
2017-12-23T17:25:59.752Z,18.10
2017-12-23T17:28:39.800Z,20.73
2017-12-23T17:31:09.426Z,32.63
2017-12-23T17:33:38.002Z,17.87
2017-12-23T17:36:06.264Z,16.73
2017-12-23T17:38:34.549Z,16.67
2017-12-23T17:41:02.849Z,18.13
2017-12-23T17:43:32.435Z,18.37
2017-12-23T17:46:01.417Z,19.53
2017-12-23T17:48:29.670Z,16.10
2017-12-23T17:50:59.330Z,16.03
2017-12-23T17:53:27.940Z,16.60
2017-12-23T17:55:56.987Z,18.87
2017-12-23T17:58:25.667Z,15.90
2017-12-23T18:00:55.330Z,16.90
2017-12-23T18:03:24.244Z,16.57
2017-12-23T18:05:53.669Z,18.00
2017-12-23T18:08:23.319Z,18.47
2017-12-23T18:10:51.868Z,19.10
2017-12-23T18:13:20.089Z,17.77
2017-12-23T18:15:49.752Z,21.77
2017-12-23T18:18:19.215Z,20.57
2017-12-23T18:20:48.764Z,19.80
2017-12-23T18:23:16.964Z,20.23
2017-12-23T18:25:45.180Z,22.90
2017-12-23T18:28:14.259Z,23.27
2017-12-23T18:30:43.957Z,21.37
2017-12-23T18:33:12.496Z,22.27
2017-12-23T18:35:40.740Z,22.17
2017-12-23T18:38:10.439Z,20.13
2017-12-23T18:40:39.932Z,22.63
2017-12-23T18:43:09.412Z,20.83
2017-12-23T18:45:37.607Z,21.83
2017-12-23T18:48:05.885Z,22.07
2017-12-23T18:50:34.200Z,19.60
2017-12-23T18:53:02.521Z,20.17
2017-12-23T18:55:31.603Z,19.23
2017-12-23T18:57:59.860Z,19.00
2017-12-23T19:00:29.539Z,20.67
2017-12-23T19:02:58.513Z,24.00
2017-12-23T19:05:26.786Z,20.30
2017-12-23T19:07:56.504Z,19.37
2017-12-23T19:10:26.118Z,20.70
2017-12-23T19:12:55.508Z,20.00
2017-12-23T19:15:24.571Z,19.80
2017-12-23T19:17:52.892Z,20.17
2017-12-23T19:20:22.582Z,17.50
2017-12-23T19:22:50.766Z,18.03
2017-12-23T19:25:19.441Z,18.87
2017-12-23T19:27:49.448Z,18.63
2017-12-23T19:30:17.778Z,20.63
2017-12-23T19:32:46.044Z,18.10
2017-12-23T19:35:15.447Z,20.47
2017-12-23T19:37:45.372Z,18.67
2017-12-23T19:40:14.063Z,17.67
2017-12-23T19:42:42.340Z,19.47
2017-12-23T19:45:10.736Z,19.80
2017-12-23T19:47:40.520Z,19.07
2017-12-23T19:50:10.184Z,18.90
2017-12-23T19:52:39.491Z,19.93
2017-12-23T19:55:08.166Z,20.30
2017-12-23T19:57:36.477Z,18.80
2017-12-23T20:00:05.896Z,19.77
2017-12-23T20:02:34.624Z,19.87
2017-12-23T20:05:02.953Z,20.03
2017-12-23T20:07:36.967Z,17.50
2017-12-23T20:10:05.298Z,15.93
2017-12-23T20:12:35.057Z,19.27
2017-12-23T20:15:04.114Z,17.97
2017-12-23T20:17:33.580Z,18.67
2017-12-23T20:20:01.883Z,18.90
2017-12-23T20:22:30.193Z,19.90
2017-12-23T20:24:58.553Z,18.53
2017-12-23T20:27:26.853Z,21.17
2017-12-23T20:29:56.692Z,23.63
2017-12-23T20:32:26.194Z,21.67
2017-12-23T20:34:54.885Z,23.80
2017-12-23T20:37:23.166Z,23.57
2017-12-23T20:39:52.832Z,23.67
2017-12-23T20:42:22.735Z,26.33
2017-12-23T20:44:52.553Z,25.00
2017-12-23T20:47:21.372Z,24.97
2017-12-23T20:49:50.794Z,24.23
2017-12-23T20:52:19.571Z,26.23
2017-12-23T20:54:49.350Z,26.50
2017-12-23T20:57:17.851Z,26.73
2017-12-23T20:59:46.128Z,22.73
2017-12-23T21:02:15.601Z,22.43
2017-12-23T21:04:44.372Z,23.60
2017-12-23T21:07:12.776Z,23.63
2017-12-23T21:09:42.600Z,20.73
2017-12-23T21:12:12.397Z,22.57
2017-12-23T21:14:40.683Z,20.07
2017-12-23T21:17:10.133Z,21.70
2017-12-23T21:19:39.941Z,22.20
2017-12-23T21:22:09.352Z,21.80
2017-12-23T21:24:38.438Z,23.50
2017-12-23T21:27:06.744Z,20.17
2017-12-23T21:29:35.025Z,20.03
2017-12-23T21:32:04.481Z,22.87
2017-12-23T21:34:32.778Z,19.13
2017-12-23T21:37:01.072Z,19.50
2017-12-23T21:39:29.436Z,18.00
2017-12-23T21:41:57.852Z,18.00
2017-12-23T21:44:27.667Z,17.90
2017-12-23T21:46:57.327Z,16.80
2017-12-23T21:49:26.026Z,14.93
2017-12-23T21:51:54.300Z,14.83
2017-12-23T21:54:24.012Z,16.03
2017-12-23T21:56:52.548Z,14.83
2017-12-23T21:59:22.207Z,12.93
2017-12-23T22:01:51.156Z,15.67
2017-12-23T22:04:20.192Z,14.70
2017-12-23T22:06:48.483Z,15.57
2017-12-23T22:09:16.840Z,19.83
2017-12-23T22:11:46.259Z,20.83
2017-12-23T22:14:15.340Z,21.57
2017-12-23T22:16:44.817Z,21.10
2017-12-23T22:19:14.466Z,21.63
2017-12-23T22:21:43.054Z,20.50
2017-12-23T22:24:12.123Z,20.40
2017-12-23T22:26:41.152Z,19.80
2017-12-23T22:29:09.781Z,19.80
2017-12-23T22:31:38.147Z,19.70
2017-12-23T22:34:06.560Z,18.20
2017-12-23T22:36:36.196Z,19.40
2017-12-23T22:39:04.480Z,16.40
2017-12-23T22:41:32.788Z,14.57
2017-12-23T22:44:01.850Z,13.70
2017-12-23T22:46:30.184Z,11.73
2017-12-23T22:48:58.498Z,14.10
2017-12-23T22:51:26.728Z,11.50
2017-12-23T22:53:55.356Z,10.03
2017-12-23T22:56:24.392Z,9.17
2017-12-23T22:58:54.011Z,10.87
2017-12-23T23:01:23.540Z,11.23
2017-12-23T23:03:51.706Z,11.70
2017-12-23T23:06:19.969Z,9.90
2017-12-23T23:08:49.435Z,9.97
2017-12-23T23:11:17.691Z,10.53
2017-12-23T23:13:47.321Z,13.73
2017-12-23T23:16:16.286Z,12.23
2017-12-23T23:18:44.562Z,12.93
2017-12-23T23:21:14.345Z,14.53
2017-12-23T23:23:42.656Z,14.20
2017-12-23T23:26:12.036Z,14.87
2017-12-23T23:28:41.824Z,16.30
2017-12-23T23:31:10.089Z,14.70
2017-12-23T23:33:38.388Z,15.40
2017-12-23T23:36:06.658Z,18.63
2017-12-23T23:38:36.529Z,18.40
2017-12-23T23:41:04.808Z,17.30
2017-12-23T23:43:33.055Z,19.00
2017-12-23T23:46:01.407Z,18.43
2017-12-23T23:48:31.196Z,17.17
2017-12-23T23:50:59.464Z,18.77
2017-12-23T23:53:27.819Z,19.83
2017-12-23T23:55:56.068Z,19.20
2017-12-23T23:58:25.865Z,16.30
